Time;durP1;ratioP1;P1;durP2;ratioP2;P2;SDS_P1;SDS_P2;PMS_P1;PMS_P2;Temp;Humidity;BMP_temperature;BMP_pressure;BME280_temperature;BME280_humidity;BME280_pressure;Samples;Min_cycle;Max_cycle;Signal;HPM_P1;HPM_P2
2022/09/02 00:02:00;;;;;;;0.90;0.80;;;25.40;50.70;;;;;;5030571;28;20578;-66
2022/09/02 00:04:26;;;;;;;0.80;0.80;;;25.40;50.70;;;;;;5031046;28;20017;-66
2022/09/02 00:06:53;;;;;;;0.95;0.80;;;25.40;50.70;;;;;;5031133;28;20464;-65
2022/09/02 00:09:22;;;;;;;1.15;0.90;;;25.40;50.70;;;;;;5031471;28;20083;-65
2022/09/02 00:11:49;;;;;;;1.13;0.82;;;25.40;50.70;;;;;;5031344;28;20037;-65
2022/09/02 00:14:28;;;;;;;0.88;0.75;;;25.40;51.30;;;;;;5030644;28;20046;-65
2022/09/02 00:16:54;;;;;;;0.82;0.70;;;25.40;50.70;;;;;;5031369;28;20056;-66
2022/09/02 00:19:23;;;;;;;1.00;0.80;;;25.40;50.80;;;;;;5030198;28;20017;-65
2022/09/02 00:21:50;;;;;;;1.15;0.90;;;25.40;50.80;;;;;;5029721;28;20171;-66
2022/09/02 00:24:16;;;;;;;1.27;1.00;;;25.40;50.80;;;;;;5031417;28;20104;-65
2022/09/02 00:26:42;;;;;;;1.35;0.80;;;25.30;50.70;;;;;;5031403;28;20108;-67
2022/09/02 00:29:09;;;;;;;2.03;1.00;;;25.30;50.70;;;;;;5030132;28;20084;-66
2022/09/02 00:31:35;;;;;;;1.80;0.88;;;25.30;50.80;;;;;;5030817;28;20491;-65
2022/09/02 00:34:01;;;;;;;1.48;0.80;;;25.30;50.80;;;;;;5031304;28;20021;-67
2022/09/02 00:36:27;;;;;;;1.10;0.80;;;25.30;50.80;;;;;;5031200;28;20091;-65
2022/09/02 00:38:53;;;;;;;1.20;0.85;;;25.30;50.80;;;;;;5031251;28;20033;-67
2022/09/02 00:41:21;;;;;;;1.00;0.70;;;25.30;50.80;;;;;;5031266;28;20037;-65
2022/09/02 00:43:52;;;;;;;1.25;0.77;;;25.30;50.80;;;;;;5030410;28;20018;-67
2022/09/02 00:46:20;;;;;;;0.90;0.80;;;25.30;50.80;;;;;;5031110;28;20534;-65
2022/09/02 00:49:07;;;;;;;1.05;0.77;;;25.30;50.80;;;;;;5030100;28;20026;-65
2022/09/02 00:51:39;;;;;;;1.00;0.88;;;25.30;50.80;;;;;;5031164;28;20029;-65
2022/09/02 00:54:06;;;;;;;1.40;0.90;;;25.20;50.80;;;;;;5044082;28;20061;-65
2022/09/02 00:56:32;;;;;;;1.02;0.73;;;25.30;50.80;;;;;;5030916;28;20389;-65
2022/09/02 00:59:00;;;;;;;0.90;0.80;;;25.30;50.90;;;;;;5031115;28;20044;-67
2022/09/02 01:01:26;;;;;;;1.45;0.90;;;25.20;50.80;;;;;;5030766;28;20591;-65
2022/09/02 01:03:52;;;;;;;0.88;0.80;;;25.20;50.80;;;;;;5030887;28;20056;-66
2022/09/02 01:06:23;;;;;;;0.90;0.77;;;25.20;50.80;;;;;;5030993;28;20476;-66
2022/09/02 01:09:00;;;;;;;1.10;0.90;;;25.20;50.80;;;;;;5029508;28;20049;-67
2022/09/02 01:11:31;;;;;;;1.77;0.80;;;25.20;50.80;;;;;;5030593;28;20029;-66
2022/09/02 01:13:58;;;;;;;1.02;0.82;;;25.20;50.80;;;;;;5032386;28;20052;-67
2022/09/02 01:16:32;;;;;;;0.88;0.80;;;25.20;50.80;;;;;;5034281;28;20086;-66
2022/09/02 01:19:00;;;;;;;0.77;0.63;;;25.10;50.80;;;;;;5032820;28;20376;-66
2022/09/02 01:21:26;;;;;;;0.65;0.60;;;25.10;50.80;;;;;;5034665;28;20032;-67
2022/09/02 01:23:53;;;;;;;0.85;0.73;;;25.10;50.80;;;;;;5034537;28;20029;-66
2022/09/02 01:26:19;;;;;;;0.77;0.70;;;25.20;50.90;;;;;;5033876;28;20045;-66
2022/09/02 01:28:45;;;;;;;0.90;0.70;;;25.10;50.80;;;;;;5034617;28;20025;-65
2022/09/02 01:31:11;;;;;;;1.00;0.80;;;25.10;50.80;;;;;;5034178;28;20112;-66
2022/09/02 01:33:37;;;;;;;0.93;0.80;;;25.10;50.90;;;;;;5034354;28;20029;-67
2022/09/02 01:36:03;;;;;;;1.10;0.90;;;25.10;50.80;;;;;;5034214;28;20616;-65
2022/09/02 01:38:30;;;;;;;1.20;0.95;;;25.10;50.90;;;;;;5034211;28;20113;-65
2022/09/02 01:40:56;;;;;;;1.40;0.77;;;25.10;50.90;;;;;;5032165;28;20511;-66
2022/09/02 01:43:25;;;;;;;1.38;0.90;;;25.10;50.90;;;;;;5034163;28;20025;-65
2022/09/02 01:45:52;;;;;;;1.00;0.70;;;25.10;50.90;;;;;;5033546;28;20057;-66
2022/09/02 01:48:19;;;;;;;0.77;0.70;;;25.10;50.90;;;;;;5031308;28;20040;-65
2022/09/02 01:50:49;;;;;;;0.80;0.80;;;25.10;50.90;;;;;;5034073;28;20481;-65
2022/09/02 01:53:16;;;;;;;2.03;0.90;;;25.10;50.90;;;;;;5033728;28;20049;-65
2022/09/02 01:55:41;;;;;;;1.10;0.85;;;25.10;50.90;;;;;;5033871;28;20080;-65
2022/09/02 01:58:07;;;;;;;0.70;0.70;;;25.00;50.90;;;;;;5033944;28;20477;-65
2022/09/02 02:00:33;;;;;;;1.02;0.70;;;25.10;50.90;;;;;;5033519;28;20099;-67
2022/09/02 02:02:59;;;;;;;1.15;0.80;;;25.10;50.90;;;;;;5033864;28;20022;-66
2022/09/02 02:05:24;;;;;;;1.25;0.90;;;25.00;50.80;;;;;;5033915;28;20358;-67
2022/09/02 02:07:50;;;;;;;0.85;0.75;;;25.00;50.90;;;;;;5033655;28;20030;-65
2022/09/02 02:10:18;;;;;;;1.27;0.82;;;25.10;51.00;;;;;;5033791;28;20025;-65
2022/09/02 02:12:44;;;;;;;0.85;0.80;;;25.00;50.90;;;;;;5033447;28;20033;-66
2022/09/02 02:15:14;;;;;;;0.73;0.60;;;25.00;50.90;;;;;;5032181;28;20376;-65
2022/09/02 02:17:40;;;;;;;0.98;0.80;;;25.00;50.90;;;;;;5033930;28;20496;-65
2022/09/02 02:20:07;;;;;;;1.08;0.80;;;25.00;50.90;;;;;;5033075;28;20061;-65
2022/09/02 02:22:33;;;;;;;0.77;0.75;;;25.00;50.90;;;;;;5033015;28;20468;-65
2022/09/02 02:24:59;;;;;;;0.95;0.85;;;25.00;51.50;;;;;;5032987;28;20095;-65
2022/09/02 02:27:25;;;;;;;0.75;0.73;;;25.00;50.90;;;;;;5033415;28;20033;-65
2022/09/02 02:29:51;;;;;;;0.77;0.70;;;25.00;51.00;;;;;;5033314;28;20523;-66
2022/09/02 02:32:17;;;;;;;1.52;0.80;;;24.90;50.90;;;;;;5032828;28;20037;-66
2022/09/02 02:34:44;;;;;;;0.80;0.70;;;25.00;51.00;;;;;;5033222;28;20021;-67
2022/09/02 02:37:11;;;;;;;1.05;0.80;;;25.00;51.00;;;;;;5032113;28;20021;-66
2022/09/02 02:39:40;;;;;;;0.95;0.80;;;25.00;51.00;;;;;;5032903;28;20025;-66
2022/09/02 02:42:06;;;;;;;0.90;0.80;;;24.90;51.00;;;;;;5033171;28;20472;-66
2022/09/02 02:44:32;;;;;;;1.27;0.85;;;24.90;50.90;;;;;;5033158;28;20032;-66
2022/09/02 02:46:58;;;;;;;0.93;0.80;;;24.90;50.90;;;;;;5033004;28;20025;-65
2022/09/02 02:49:25;;;;;;;1.25;0.75;;;24.90;51.00;;;;;;5032928;28;20487;-65
2022/09/02 02:51:52;;;;;;;0.63;0.60;;;24.90;51.00;;;;;;5032847;28;20025;-65
2022/09/02 02:54:18;;;;;;;1.10;0.80;;;24.90;51.00;;;;;;5032961;28;20024;-66
2022/09/02 02:56:44;;;;;;;0.77;0.70;;;24.90;51.00;;;;;;5032880;28;20029;-66
2022/09/02 02:59:10;;;;;;;0.90;0.70;;;24.90;51.00;;;;;;5032386;28;20029;-65
2022/09/02 03:01:36;;;;;;;0.88;0.70;;;24.90;51.00;;;;;;5032271;28;20026;-65
2022/09/02 03:04:03;;;;;;;0.85;0.70;;;24.90;51.00;;;;;;5032664;28;20030;-66
2022/09/02 03:06:29;;;;;;;1.00;0.82;;;24.90;51.00;;;;;;5033002;28;20475;-65
2022/09/02 03:08:56;;;;;;;1.02;0.80;;;24.90;51.00;;;;;;5032552;28;20029;-66
2022/09/02 03:11:22;;;;;;;0.82;0.63;;;24.90;51.00;;;;;;5032710;28;20026;-65
2022/09/02 03:13:51;;;;;;;0.88;0.80;;;24.90;51.00;;;;;;5032280;28;20052;-65
2022/09/02 03:16:18;;;;;;;1.05;0.80;;;24.80;50.90;;;;;;5032426;28;20055;-65
2022/09/02 03:18:45;;;;;;;0.70;0.63;;;24.80;51.00;;;;;;5032380;28;20022;-66
2022/09/02 03:21:11;;;;;;;0.60;0.60;;;24.80;50.90;;;;;;5032303;28;20113;-64
2022/09/02 03:23:37;;;;;;;1.08;0.80;;;24.80;51.00;;;;;;5032326;28;20025;-64
2022/09/02 03:26:09;;;;;;;1.02;0.85;;;24.80;51.00;;;;;;5032242;28;20087;-65
2022/09/02 03:28:35;;;;;;;1.15;0.80;;;24.80;51.00;;;;;;5032044;28;20048;-65
2022/09/02 03:31:01;;;;;;;0.95;0.85;;;24.80;51.00;;;;;;5031570;28;20485;-65
2022/09/02 03:33:27;;;;;;;1.10;0.80;;;24.80;51.00;;;;;;5031996;28;20123;-65
2022/09/02 03:35:52;;;;;;;0.85;0.80;;;24.80;51.00;;;;;;5031243;28;20037;-64
2022/09/02 03:38:18;;;;;;;0.60;0.60;;;24.80;51.00;;;;;;5031941;28;20210;-65
2022/09/02 03:40:43;;;;;;;0.90;0.70;;;24.80;51.00;;;;;;5031976;28;20044;-67
2022/09/02 03:43:10;;;;;;;0.68;0.65;;;24.80;51.00;;;;;;5031939;28;20029;-65
2022/09/02 03:45:37;;;;;;;0.90;0.70;;;24.80;51.00;;;;;;5032052;28;20037;-65
2022/09/02 03:48:03;;;;;;;0.65;0.65;;;24.80;51.00;;;;;;5031915;28;20484;-65
2022/09/02 03:50:35;;;;;;;0.80;0.80;;;24.80;51.10;;;;;;5031601;28;20025;-65
2022/09/02 03:53:01;;;;;;;1.38;0.88;;;24.80;51.00;;;;;;5030100;28;20025;-66
2022/09/02 03:55:28;;;;;;;0.85;0.70;;;24.80;51.00;;;;;;5031766;28;20075;-65
2022/09/02 03:57:53;;;;;;;0.70;0.70;;;24.80;51.00;;;;;;5031586;28;20073;-65
2022/09/02 04:00:28;;;;;;;0.70;0.70;;;24.80;51.00;;;;;;5031297;28;20040;-66
2022/09/02 04:02:54;;;;;;;1.17;0.80;;;24.80;51.00;;;;;;5030420;28;20497;-66
2022/09/02 04:05:21;;;;;;;0.80;0.70;;;24.70;51.00;;;;;;5031632;28;20108;-66
2022/09/02 04:07:50;;;;;;;1.33;0.90;;;24.70;51.00;;;;;;5031629;28;20057;-67
2022/09/02 04:10:16;;;;;;;1.02;0.80;;;24.70;51.00;;;;;;5031434;28;20037;-64
2022/09/02 04:12:41;;;;;;;0.73;0.70;;;24.70;51.00;;;;;;5031378;28;20037;-67
2022/09/02 04:15:09;;;;;;;1.10;0.80;;;24.70;51.00;;;;;;5031340;28;20040;-66
2022/09/02 04:17:36;;;;;;;1.08;0.80;;;24.70;51.00;;;;;;5031518;28;20018;-66
2022/09/02 04:20:07;;;;;;;0.70;0.70;;;24.70;51.00;;;;;;5031472;28;20038;-65
2022/09/02 04:22:32;;;;;;;0.68;0.65;;;24.70;51.00;;;;;;5031296;28;20026;-65
2022/09/02 04:24:58;;;;;;;1.02;0.70;;;24.70;51.10;;;;;;5031351;28;20243;-65
2022/09/02 04:27:24;;;;;;;0.70;0.70;;;24.70;51.10;;;;;;5031441;28;20026;-66
2022/09/02 04:29:50;;;;;;;0.60;0.60;;;24.60;51.00;;;;;;5031282;28;20033;-66
2022/09/02 04:32:16;;;;;;;0.70;0.70;;;24.70;51.00;;;;;;5030900;28;20033;-66
2022/09/02 04:34:42;;;;;;;1.10;0.88;;;24.70;51.00;;;;;;5031083;28;20030;-66
2022/09/02 04:37:07;;;;;;;0.70;0.70;;;24.70;51.00;;;;;;5029637;28;20473;-66
2022/09/02 04:39:33;;;;;;;1.00;0.80;;;24.70;51.10;;;;;;5031281;28;20030;-66
2022/09/02 04:41:59;;;;;;;0.88;0.70;;;24.60;51.00;;;;;;5031317;28;20033;-66
2022/09/02 04:44:24;;;;;;;0.98;0.70;;;24.60;51.00;;;;;;5031179;28;20044;-66
2022/09/02 04:46:50;;;;;;;1.30;0.90;;;24.70;51.00;;;;;;5031204;28;20029;-66
2022/09/02 04:49:16;;;;;;;0.90;0.80;;;24.70;51.00;;;;;;5035013;28;20033;-66
2022/09/02 04:51:42;;;;;;;0.90;0.70;;;24.70;51.00;;;;;;5035440;28;20025;-65
2022/09/02 04:54:08;;;;;;;0.70;0.70;;;24.60;51.00;;;;;;5034712;28;20389;-66
2022/09/02 04:56:33;;;;;;;1.40;0.77;;;24.60;51.00;;;;;;5034980;28;20030;-65
2022/09/02 04:59:00;;;;;;;0.70;0.70;;;24.60;51.00;;;;;;5035617;28;20409;-66
2022/09/02 05:01:29;;;;;;;0.75;0.60;;;24.60;51.00;;;;;;5032643;28;20587;-66
2022/09/02 05:03:55;;;;;;;0.80;0.68;;;24.60;51.00;;;;;;5034110;28;20018;-66
2022/09/02 05:06:26;;;;;;;0.70;0.70;;;24.60;51.00;;;;;;5034853;28;20477;-66
2022/09/02 05:08:56;;;;;;;0.70;0.70;;;24.60;51.10;;;;;;5032699;28;20416;-65
2022/09/02 05:11:27;;;;;;;0.90;0.80;;;24.60;51.00;;;;;;5034808;28;20033;-65
2022/09/02 05:13:54;;;;;;;0.93;0.75;;;24.60;51.10;;;;;;5034333;28;20060;-65
2022/09/02 05:16:28;;;;;;;0.82;0.70;;;24.60;51.00;;;;;;5034185;28;20048;-65
2022/09/02 05:18:54;;;;;;;0.93;0.80;;;24.60;51.00;;;;;;5034628;28;20025;-65
2022/09/02 05:21:22;;;;;;;0.90;0.70;;;24.60;51.00;;;;;;5034596;28;20025;-65
2022/09/02 05:23:49;;;;;;;0.93;0.80;;;24.60;51.10;;;;;;5033531;28;20079;-65
2022/09/02 05:26:15;;;;;;;0.80;0.70;;;24.60;51.10;;;;;;5034540;28;20017;-65
2022/09/02 05:28:41;;;;;;;0.73;0.60;;;24.50;51.00;;;;;;5034495;28;20056;-65
2022/09/02 05:31:11;;;;;;;0.80;0.70;;;24.60;51.10;;;;;;5033749;28;20116;-65
2022/09/02 05:33:39;;;;;;;0.80;0.70;;;24.50;51.10;;;;;;5034394;28;20469;-65
2022/09/02 05:36:06;;;;;;;0.88;0.80;;;24.50;51.10;;;;;;5034358;28;20477;-66
2022/09/02 05:38:31;;;;;;;0.70;0.70;;;24.50;51.10;;;;;;5034345;28;20029;-65
2022/09/02 05:40:58;;;;;;;0.63;0.63;;;24.60;51.20;;;;;;5031953;28;20101;-66
2022/09/02 05:43:24;;;;;;;0.80;0.75;;;24.50;51.20;;;;;;5034265;28;20021;-66
2022/09/02 05:45:50;;;;;;;0.70;0.70;;;24.60;51.30;;;;;;5032142;28;20448;-65
2022/09/02 05:51:04;;;;;;;2.83;1.10;;;24.60;51.10;;;;;;5033788;28;20091;-65
2022/09/02 05:53:30;;;;;;;2.55;1.20;;;24.60;49.30;;;;;;5033918;28;20026;-65
2022/09/02 05:55:56;;;;;;;2.78;1.27;;;24.60;47.70;;;;;;5033916;28;20112;-65
2022/09/02 05:58:22;;;;;;;3.92;1.25;;;24.60;46.80;;;;;;5034130;28;20441;-64
2022/09/02 06:00:48;;;;;;;2.00;1.20;;;24.50;45.80;;;;;;5032771;28;20029;-64
2022/09/02 06:03:17;;;;;;;2.22;1.10;;;24.50;45.30;;;;;;5033695;28;20014;-65
2022/09/02 06:05:55;;;;;;;1.73;1.02;;;24.50;44.90;;;;;;5033798;28;20022;-65
2022/09/02 06:08:21;;;;;;;1.52;0.90;;;24.50;44.50;;;;;;5033660;28;20034;-64
2022/09/02 06:10:47;;;;;;;1.17;0.90;;;24.40;44.20;;;;;;5033775;28;20456;-65
2022/09/02 06:13:14;;;;;;;2.85;1.10;;;24.40;44.10;;;;;;5033650;28;20053;-65
2022/09/02 06:15:42;;;;;;;1.33;1.00;;;24.30;43.90;;;;;;5032526;28;20030;-65
2022/09/02 06:18:08;;;;;;;1.20;0.88;;;24.30;43.80;;;;;;5033417;28;20404;-65
2022/09/02 06:20:34;;;;;;;1.55;0.98;;;24.20;43.60;;;;;;5033372;28;20029;-64
2022/09/02 06:23:00;;;;;;;2.38;1.00;;;24.20;43.60;;;;;;5032878;28;20029;-65
2022/09/02 06:25:25;;;;;;;1.63;1.05;;;24.20;43.70;;;;;;5033329;28;20026;-65
2022/09/02 06:27:51;;;;;;;1.30;0.82;;;24.10;43.80;;;;;;5033278;28;20393;-65
2022/09/02 06:30:17;;;;;;;1.35;0.90;;;24.10;43.60;;;;;;5032966;28;20506;-63
2022/09/02 06:32:42;;;;;;;1.88;1.17;;;24.10;44.20;;;;;;5032574;28;20040;-64
2022/09/02 06:35:09;;;;;;;1.75;0.93;;;24.10;44.40;;;;;;5032536;28;20033;-63
2022/09/02 06:37:35;;;;;;;1.15;0.93;;;24.10;44.60;;;;;;5033215;28;20028;-64
2022/09/02 06:40:00;;;;;;;1.58;1.00;;;24.20;44.70;;;;;;5032823;28;20021;-63
2022/09/02 06:42:26;;;;;;;1.83;0.95;;;24.20;45.40;;;;;;5033067;28;20021;-63
2022/09/02 06:44:52;;;;;;;1.77;1.00;;;24.20;45.00;;;;;;5033087;28;20424;-63
2022/09/02 06:47:17;;;;;;;1.67;1.10;;;24.20;45.20;;;;;;5032921;28;20025;-62
2022/09/02 06:49:43;;;;;;;1.05;0.80;;;24.30;45.50;;;;;;5033062;28;20484;-63
2022/09/02 06:52:11;;;;;;;1.10;0.90;;;24.30;45.30;;;;;;5032930;28;20039;-64
2022/09/02 06:54:36;;;;;;;1.63;0.90;;;24.30;45.40;;;;;;5032821;28;20029;-63
2022/09/02 06:57:02;;;;;;;1.73;0.90;;;24.30;45.40;;;;;;5032703;28;20029;-63
2022/09/02 06:59:28;;;;;;;1.55;1.00;;;24.30;45.50;;;;;;5032801;28;20040;-63
2022/09/02 07:01:54;;;;;;;1.27;0.80;;;24.40;45.60;;;;;;5032294;28;20033;-63
2022/09/02 07:07:07;;;;;;;2.63;1.00;;;24.40;45.70;;;;;;5032620;28;20440;-63
2022/09/02 07:09:33;;;;;;;1.80;0.88;;;24.40;45.70;;;;;;5031952;28;20029;-63
2022/09/02 07:12:00;;;;;;;1.65;1.02;;;24.50;45.80;;;;;;5031295;28;20037;-62
2022/09/02 07:14:29;;;;;;;1.55;0.95;;;24.50;45.90;;;;;;5032313;28;20378;-63
2022/09/02 07:16:56;;;;;;;1.53;0.93;;;24.50;45.90;;;;;;5031761;28;20108;-63
2022/09/02 07:19:23;;;;;;;1.13;0.80;;;24.60;46.00;;;;;;5032372;28;20072;-63
2022/09/02 07:21:49;;;;;;;1.45;1.00;;;24.50;46.00;;;;;;5032241;28;20021;-64
2022/09/02 07:24:16;;;;;;;1.10;0.70;;;24.50;46.00;;;;;;5032345;28;20539;-64
2022/09/02 07:26:43;;;;;;;1.90;0.90;;;24.50;46.10;;;;;;5032334;28;20061;-63
2022/09/02 07:29:09;;;;;;;1.52;0.80;;;24.60;46.10;;;;;;5031645;28;20041;-63
2022/09/02 07:31:37;;;;;;;0.93;0.75;;;24.60;46.20;;;;;;5019967;28;20034;-63
2022/09/02 07:34:05;;;;;;;1.00;0.88;;;24.60;46.20;;;;;;5030483;28;20026;-63
2022/09/02 07:36:33;;;;;;;1.15;0.93;;;24.60;46.20;;;;;;5031955;28;20032;-63
2022/09/02 07:38:58;;;;;;;1.60;0.80;;;24.70;46.20;;;;;;5031327;28;20022;-64
2022/09/02 07:41:24;;;;;;;1.60;1.00;;;24.70;46.20;;;;;;5031869;28;20042;-63
2022/09/02 07:43:50;;;;;;;1.25;0.82;;;24.70;46.20;;;;;;5031977;28;20038;-63
2022/09/02 07:46:16;;;;;;;2.00;0.93;;;24.70;46.10;;;;;;5031939;28;20036;-63
2022/09/02 07:48:42;;;;;;;1.05;0.80;;;24.80;46.20;;;;;;5031774;28;20025;-63
2022/09/02 07:51:09;;;;;;;1.80;0.90;;;24.80;46.20;;;;;;5031927;28;20029;-63
2022/09/02 07:53:35;;;;;;;1.05;0.85;;;24.80;46.20;;;;;;5030391;28;20029;-63
2022/09/02 07:56:02;;;;;;;1.42;1.08;;;24.80;46.20;;;;;;5031595;28;20029;-63
2022/09/02 07:58:28;;;;;;;1.08;0.80;;;24.80;46.20;;;;;;5031712;28;20029;-63
2022/09/02 08:00:57;;;;;;;1.15;0.80;;;24.80;46.30;;;;;;5031386;28;20030;-63
2022/09/02 08:03:24;;;;;;;1.33;0.90;;;24.90;46.80;;;;;;5031517;28;20048;-63
2022/09/02 08:05:51;;;;;;;1.17;0.90;;;24.90;46.30;;;;;;5031681;28;20727;-63
2022/09/02 08:08:21;;;;;;;0.98;0.80;;;24.90;46.30;;;;;;5031018;28;20026;-64
2022/09/02 08:10:50;;;;;;;2.47;0.80;;;24.90;46.30;;;;;;5030619;28;20460;-64
2022/09/02 08:13:17;;;;;;;2.03;1.02;;;24.90;46.30;;;;;;5029358;28;20569;-63
2022/09/02 08:15:44;;;;;;;1.05;0.82;;;25.00;46.30;;;;;;5031379;28;20399;-64
2022/09/02 08:18:10;;;;;;;1.85;1.00;;;25.00;46.30;;;;;;5031467;28;20092;-63
2022/09/02 08:20:35;;;;;;;1.00;0.80;;;25.00;46.30;;;;;;5031497;28;20029;-63
2022/09/02 08:23:05;;;;;;;1.40;0.80;;;25.00;46.30;;;;;;5030865;28;20048;-63
2022/09/02 08:25:31;;;;;;;1.70;0.80;;;25.00;46.30;;;;;;5031349;28;20494;-64
2022/09/02 08:27:57;;;;;;;1.25;0.95;;;25.00;46.30;;;;;;5029333;28;20079;-63
2022/09/02 08:30:23;;;;;;;1.33;0.90;;;25.00;46.30;;;;;;5030868;28;20030;-63
2022/09/02 08:32:48;;;;;;;1.08;0.80;;;25.10;46.40;;;;;;5031248;28;20210;-64
2022/09/02 08:35:14;;;;;;;1.00;0.77;;;25.10;46.40;;;;;;5031154;28;20615;-63
2022/09/02 08:37:40;;;;;;;1.05;0.82;;;25.10;46.40;;;;;;5031239;28;20033;-63
2022/09/02 08:40:16;;;;;;;1.15;0.90;;;25.10;46.40;;;;;;5031265;28;20087;-63
2022/09/02 08:42:47;;;;;;;1.02;0.70;;;25.10;46.40;;;;;;5031271;28;20028;-63
2022/09/02 08:45:36;;;;;;;1.60;0.80;;;25.10;46.40;;;;;;5029512;28;20025;-63
2022/09/02 08:48:10;;;;;;;1.67;1.08;;;25.10;46.40;;;;;;5029347;28;20064;-64
2022/09/02 08:50:38;;;;;;;1.20;0.70;;;25.20;46.40;;;;;;5030465;28;20052;-63
2022/09/02 08:53:27;;;;;;;1.33;0.80;;;25.20;46.50;;;;;;5030137;28;20021;-64
2022/09/02 08:55:55;;;;;;;1.13;0.60;;;25.20;46.40;;;;;;5029524;28;20048;-64
2022/09/02 08:58:24;;;;;;;1.30;0.70;;;25.20;46.40;;;;;;5031109;28;20609;-65
2022/09/02 09:01:23;;;;;;;1.58;0.90;;;25.20;46.40;;;;;;5029982;28;20084;-63
2022/09/02 09:04:13;;;;;;;1.00;0.77;;;25.20;46.40;;;;;;5017647;28;20045;-63
2022/09/02 09:06:58;;;;;;;1.73;0.90;;;25.30;46.50;;;;;;5029748;28;20037;-63
2022/09/02 09:09:43;;;;;;;1.00;0.80;;;25.30;46.50;;;;;;5029023;28;20492;-64
2022/09/02 09:12:34;;;;;;;0.73;0.70;;;25.30;46.50;;;;;;5030811;28;20025;-63
2022/09/02 09:15:21;;;;;;;1.05;0.80;;;25.30;46.60;;;;;;5030094;28;20530;-63
2022/09/02 09:17:58;;;;;;;1.80;0.80;;;25.30;46.50;;;;;;5030877;28;20173;-63
2022/09/02 09:20:31;;;;;;;1.17;0.80;;;25.30;46.70;;;;;;5030819;28;20416;-62
2022/09/02 09:23:00;;;;;;;1.20;0.88;;;25.30;46.60;;;;;;5030369;28;20017;-63
2022/09/02 09:25:31;;;;;;;1.77;0.80;;;25.40;46.80;;;;;;5030506;28;20075;-64
2022/09/02 09:27:57;;;;;;;1.05;0.80;;;25.40;46.90;;;;;;5030876;28;20092;-63
2022/09/02 09:30:24;;;;;;;1.20;0.80;;;25.40;46.80;;;;;;5030326;28;20120;-63
2022/09/02 09:32:59;;;;;;;0.90;0.70;;;25.40;46.90;;;;;;5030737;28;20072;-63
2022/09/02 09:35:45;;;;;;;1.42;0.80;;;25.40;46.90;;;;;;5032774;28;20479;-60
2022/09/02 09:38:12;;;;;;;1.33;0.90;;;25.40;46.80;;;;;;5033485;28;20068;-63
2022/09/02 09:40:38;;;;;;;1.05;0.80;;;25.40;46.80;;;;;;5032866;28;20491;-63
2022/09/02 09:43:04;;;;;;;1.10;0.70;;;25.40;46.80;;;;;;5034262;28;20021;-63
2022/09/02 09:45:37;;;;;;;1.05;0.80;;;25.40;46.80;;;;;;5034242;28;20044;-64
2022/09/02 09:48:15;;;;;;;1.02;0.80;;;25.50;46.80;;;;;;5034239;28;20095;-63
2022/09/02 09:50:46;;;;;;;1.35;0.90;;;25.50;46.90;;;;;;5032777;28;20041;-63
2022/09/02 09:53:16;;;;;;;1.08;0.80;;;25.40;46.80;;;;;;5032062;28;20025;-64
2022/09/02 09:55:57;;;;;;;1.35;0.70;;;25.50;46.80;;;;;;5032628;28;20389;-63
2022/09/02 09:58:31;;;;;;;0.98;0.70;;;25.50;46.60;;;;;;5033937;28;20029;-64
2022/09/02 10:00:59;;;;;;;0.88;0.70;;;25.50;46.50;;;;;;5033533;28;20033;-64
2022/09/02 10:03:27;;;;;;;1.02;0.80;;;25.50;46.90;;;;;;5034630;28;20033;-62
2022/09/02 10:06:16;;;;;;;1.27;0.77;;;25.50;46.40;;;;;;5033313;28;20120;-63
2022/09/02 10:08:55;;;;;;;0.90;0.70;;;25.50;46.30;;;;;;5033689;28;20040;-63
2022/09/02 10:11:25;;;;;;;0.93;0.70;;;25.60;46.40;;;;;;5033673;28;20092;-63
2022/09/02 10:13:59;;;;;;;1.50;0.80;;;25.60;46.40;;;;;;5033661;28;20526;-64
2022/09/02 10:16:31;;;;;;;0.70;0.70;;;25.50;46.40;;;;;;5032932;28;20136;-62
2022/09/02 10:19:15;;;;;;;1.25;0.75;;;25.60;46.50;;;;;;5033402;28;20021;-63
2022/09/02 10:21:56;;;;;;;0.90;0.80;;;25.60;46.50;;;;;;5033098;28;20021;-63
2022/09/02 10:24:59;;;;;;;1.13;0.70;;;25.60;46.50;;;;;;5033497;28;20084;-63
2022/09/02 10:27:54;;;;;;;1.13;0.80;;;25.60;46.60;;;;;;5031168;28;20087;-63
2022/09/02 10:30:24;;;;;;;1.20;0.80;;;25.60;46.60;;;;;;5032529;28;20033;-63
2022/09/02 10:33:39;;;;;;;1.42;0.80;;;25.60;46.60;;;;;;5033375;28;20506;-63
2022/09/02 10:36:13;;;;;;;1.00;0.73;;;25.60;46.60;;;;;;5031155;28;20088;-63
2022/09/02 10:38:43;;;;;;;1.17;0.70;;;25.70;46.70;;;;;;5031408;28;20487;-64
2022/09/02 10:41:30;;;;;;;1.20;0.70;;;25.60;46.60;;;;;;5032703;28;20029;-64
2022/09/02 10:44:17;;;;;;;1.35;0.90;;;25.70;46.70;;;;;;5032573;28;20029;-63
2022/09/02 10:46:49;;;;;;;0.70;0.63;;;25.70;46.70;;;;;;5032097;28;20032;-63
2022/09/02 10:49:46;;;;;;;1.15;0.70;;;25.70;46.70;;;;;;5032529;28;20496;-64
2022/09/02 10:52:11;;;;;;;0.95;0.80;;;25.60;46.70;;;;;;5032495;28;20507;-64
2022/09/02 10:54:43;;;;;;;1.63;0.75;;;25.70;46.80;;;;;;5032811;28;20021;-63
2022/09/02 10:57:22;;;;;;;1.70;0.90;;;25.70;46.90;;;;;;5031643;28;20385;-63
2022/09/02 11:00:03;;;;;;;0.90;0.70;;;25.70;46.90;;;;;;5032504;28;20075;-64
2022/09/02 11:02:50;;;;;;;1.45;0.90;;;25.70;46.80;;;;;;5032251;28;20116;-64
2022/09/02 11:05:20;;;;;;;0.90;0.70;;;25.70;46.70;;;;;;5031816;28;20104;-63
2022/09/02 11:08:00;;;;;;;1.15;0.75;;;25.70;46.60;;;;;;5032647;28;20500;-63
2022/09/02 11:10:34;;;;;;;0.65;0.65;;;25.70;46.60;;;;;;5031488;28;20524;-64
2022/09/02 11:13:08;;;;;;;0.90;0.70;;;25.70;46.50;;;;;;5032557;28;20030;-63
2022/09/02 11:15:44;;;;;;;0.75;0.65;;;25.70;46.50;;;;;;5032415;28;20026;-64
2022/09/02 11:18:41;;;;;;;0.88;0.70;;;25.70;46.40;;;;;;5031712;28;20088;-67
2022/09/02 11:21:19;;;;;;;1.10;0.77;;;25.70;46.40;;;;;;5032471;28;20021;-65
2022/09/02 11:24:20;;;;;;;0.95;0.70;;;25.70;46.40;;;;;;5030909;28;20030;-66
2022/09/02 11:27:03;;;;;;;1.30;0.75;;;25.70;46.50;;;;;;4994514;28;20544;-65
2022/09/02 11:29:39;;;;;;;1.20;0.70;;;25.70;46.50;;;;;;5032136;28;20030;-66
2022/09/02 11:32:42;;;;;;;1.02;0.82;;;25.70;46.50;;;;;;5031705;28;20043;-65
2022/09/02 11:35:15;;;;;;;0.90;0.80;;;25.70;46.60;;;;;;5046258;28;20491;-64
2022/09/02 11:37:53;;;;;;;1.27;0.80;;;25.70;46.60;;;;;;5030517;28;20033;-65
2022/09/02 11:40:30;;;;;;;0.93;0.70;;;25.70;46.60;;;;;;5031764;28;20025;-64
2022/09/02 11:43:00;;;;;;;1.02;0.70;;;25.70;46.60;;;;;;5032072;28;20132;-65
2022/09/02 11:46:01;;;;;;;0.85;0.75;;;25.70;46.60;;;;;;5031535;28;20091;-64
2022/09/02 11:48:51;;;;;;;1.60;0.70;;;25.70;46.60;;;;;;5031539;28;20033;-62
2022/09/02 11:51:42;;;;;;;1.52;0.70;;;25.70;46.70;;;;;;5031174;28;20065;-66
2022/09/02 11:54:12;;;;;;;1.80;0.60;;;25.70;46.80;;;;;;5031398;28;20507;-64
2022/09/02 11:56:42;;;;;;;0.60;0.60;;;25.70;47.40;;;;;;5031309;28;20464;-64
2022/09/02 11:59:23;;;;;;;0.80;0.77;;;25.70;46.80;;;;;;5029873;28;20021;-64
2022/09/02 12:01:53;;;;;;;0.63;0.60;;;25.80;46.90;;;;;;5030505;28;20045;-65
2022/09/02 12:04:25;;;;;;;0.80;0.70;;;25.70;46.80;;;;;;5031339;28;20508;-66
2022/09/02 12:07:06;;;;;;;0.80;0.73;;;25.80;46.90;;;;;;5031329;28;20075;-64
2022/09/02 12:09:45;;;;;;;1.02;0.70;;;25.70;46.80;;;;;;5029605;28;20033;-64
2022/09/02 12:12:35;;;;;;;0.60;0.60;;;25.70;46.80;;;;;;5029173;28;20543;-64
2022/09/02 12:15:04;;;;;;;0.95;0.70;;;25.70;46.90;;;;;;5028987;28;20037;-64
2022/09/02 12:17:46;;;;;;;0.80;0.77;;;25.70;46.90;;;;;;5030750;28;20056;-64
2022/09/02 12:20:38;;;;;;;1.15;0.80;;;25.70;46.90;;;;;;5030781;28;20135;-65
2022/09/02 12:23:06;;;;;;;0.80;0.73;;;25.70;46.90;;;;;;4998545;28;20037;-65
2022/09/02 12:25:36;;;;;;;1.40;0.70;;;25.70;46.90;;;;;;5030903;28;20080;-64
2022/09/02 12:28:25;;;;;;;0.70;0.70;;;25.70;46.90;;;;;;5031460;28;20025;-64
2022/09/02 12:31:09;;;;;;;0.70;0.65;;;25.70;47.00;;;;;;5030610;28;20025;-64
2022/09/02 12:33:37;;;;;;;0.65;0.60;;;25.70;47.00;;;;;;5029384;28;20021;-65
2022/09/02 12:36:05;;;;;;;1.00;0.60;;;25.70;47.10;;;;;;5031328;28;20053;-64
2022/09/02 12:38:40;;;;;;;0.82;0.70;;;25.60;47.00;;;;;;5031279;28;20025;-64
2022/09/02 12:41:11;;;;;;;0.57;0.57;;;25.60;47.00;;;;;;5029695;28;20079;-65
2022/09/02 12:44:22;;;;;;;1.50;0.70;;;25.60;47.10;;;;;;5031059;28;20029;-64
2022/09/02 12:46:58;;;;;;;1.17;0.70;;;25.60;47.10;;;;;;5028058;28;20515;-66
2022/09/02 12:49:37;;;;;;;1.15;0.70;;;25.60;47.10;;;;;;5031054;28;20026;-64
2022/09/02 12:53:01;;;;;;;0.77;0.60;;;25.50;47.10;;;;;;5030191;28;20032;-65
2022/09/02 12:55:30;;;;;;;1.85;1.00;;;25.60;47.20;;;;;;4950678;29;20045;-63
2022/09/02 12:58:10;;;;;;;1.53;0.70;;;25.60;47.20;;;;;;4950884;29;20494;-63
2022/09/02 13:00:39;;;;;;;0.85;0.60;;;25.50;47.10;;;;;;4995661;28;20030;-64
2022/09/02 13:03:34;;;;;;;0.50;0.50;;;25.50;47.30;;;;;;5031166;28;20022;-64
2022/09/02 13:06:18;;;;;;;0.60;0.60;;;25.50;47.30;;;;;;5030828;28;20489;-64
2022/09/02 13:09:01;;;;;;;0.80;0.60;;;25.50;47.30;;;;;;5032212;28;20079;-63
2022/09/02 13:11:46;;;;;;;0.65;0.60;;;25.50;47.30;;;;;;5034854;28;20061;-64
2022/09/02 13:14:49;;;;;;;0.57;0.57;;;25.40;47.30;;;;;;5033454;28;20058;-64